Time;durP1;ratioP1;P1;durP2;ratioP2;P2;SDS_P1;SDS_P2;PMS_P1;PMS_P2;Temp;Humidity;BMP_temperature;BMP_pressure;BME280_temperature;BME280_humidity;BME280_pressure;Samples;Min_cycle;Max_cycle;Signal;HPM_P1;HPM_P2
2022/06/13 00:00:31;;;;;;;10.10;9.23;;;16.40;99.90;;;;;;4179038;28;20236;-69
2022/06/13 00:02:34;;;;;;;16.97;15.77;;;16.30;99.90;;;;;;4179050;28;20721;-69
2022/06/13 00:04:36;;;;;;;37.13;34.93;;;16.20;99.90;;;;;;4179376;28;20203;-69
2022/06/13 00:06:36;;;;;;;18.33;16.90;;;16.20;99.90;;;;;;4178351;28;20180;-69
2022/06/13 00:08:37;;;;;;;16.10;14.53;;;16.20;99.90;;;;;;4178926;28;20180;-69
2022/06/13 00:10:38;;;;;;;13.83;12.77;;;16.10;99.90;;;;;;4177669;28;20207;-69
2022/06/13 00:12:40;;;;;;;19.23;10.20;;;16.10;99.90;;;;;;4164492;28;20200;-70
2022/06/13 00:14:41;;;;;;;14.67;12.93;;;16.10;99.90;;;;;;4162421;28;20611;-70
2022/06/13 00:16:41;;;;;;;11.70;10.50;;;16.10;99.90;;;;;;4161614;28;20181;-71
2022/06/13 00:18:49;;;;;;;11.50;10.50;;;16.00;99.90;;;;;;4162230;28;20832;-70
2022/06/13 00:20:49;;;;;;;22.47;20.97;;;16.10;99.90;;;;;;4162161;28;20575;-70
2022/06/13 00:22:50;;;;;;;13.37;12.27;;;16.10;99.90;;;;;;4162502;28;20189;-70
2022/06/13 00:24:50;;;;;;;12.87;11.83;;;16.00;99.90;;;;;;4161999;28;20205;-70
2022/06/13 00:26:51;;;;;;;19.10;17.80;;;16.00;99.90;;;;;;4161822;28;20181;-70
2022/06/13 00:28:52;;;;;;;12.20;11.10;;;16.10;99.90;;;;;;4162179;28;20192;-70
2022/06/13 00:30:53;;;;;;;14.83;13.50;;;16.10;99.90;;;;;;4162191;28;20296;-70
2022/06/13 00:32:53;;;;;;;14.53;13.30;;;16.10;99.90;;;;;;4162301;28;20188;-70
2022/06/13 00:34:55;;;;;;;12.77;11.67;;;16.10;99.90;;;;;;4162151;28;20197;-70
2022/06/13 00:36:56;;;;;;;13.07;12.00;;;16.10;99.90;;;;;;4163718;28;20637;-70
2022/06/13 00:38:56;;;;;;;12.43;11.20;;;16.20;99.90;;;;;;4165453;28;20196;-70
2022/06/13 00:40:57;;;;;;;13.17;11.97;;;16.10;99.90;;;;;;4165156;28;20190;-70
2022/06/13 00:42:58;;;;;;;14.23;13.17;;;16.10;99.90;;;;;;4165244;28;20192;-70
2022/06/13 00:45:05;;;;;;;20.90;19.47;;;16.10;99.90;;;;;;4165171;28;20208;-70
2022/06/13 00:47:06;;;;;;;13.17;12.17;;;16.10;99.90;;;;;;4165160;28;20199;-71
2022/06/13 00:49:15;;;;;;;17.10;15.40;;;16.10;99.90;;;;;;4165406;28;20185;-70
2022/06/13 00:51:16;;;;;;;13.80;12.57;;;16.20;99.90;;;;;;4165427;28;20181;-70
2022/06/13 00:53:22;;;;;;;16.23;14.60;;;16.10;99.90;;;;;;4165465;28;20180;-71
2022/06/13 00:55:37;;;;;;;15.57;14.27;;;16.10;99.90;;;;;;4164755;28;20200;-70
2022/06/13 00:57:38;;;;;;;16.23;14.67;;;16.00;99.90;;;;;;4165252;28;20196;-70
2022/06/13 00:59:39;;;;;;;38.20;35.80;;;16.00;99.90;;;;;;4165267;28;20185;-70
2022/06/13 01:01:40;;;;;;;17.43;16.03;;;16.00;99.90;;;;;;4164878;28;20177;-70
2022/06/13 01:03:43;;;;;;;13.70;12.47;;;16.00;99.90;;;;;;4165408;28;20652;-70
2022/06/13 01:05:46;;;;;;;13.57;12.33;;;16.00;99.90;;;;;;4164622;28;20205;-70
2022/06/13 01:07:48;;;;;;;14.63;13.27;;;15.90;99.90;;;;;;4165196;28;20223;-70
2022/06/13 01:12:10;;;;;;;15.20;13.97;;;15.90;99.90;;;;;;4164928;28;20595;-70
2022/06/13 01:14:53;;;;;;;16.77;15.37;;;15.80;99.90;;;;;;4177831;28;20263;-70
2022/06/13 01:17:02;;;;;;;12.23;11.13;;;15.80;99.90;;;;;;4176000;28;20596;-71
2022/06/13 01:19:15;;;;;;;15.93;14.57;;;15.80;99.90;;;;;;4181344;28;20176;-71
2022/06/13 01:21:46;;;;;;;15.80;14.33;;;15.80;99.90;;;;;;4181754;28;20206;-71
2022/06/13 01:24:29;;;;;;;12.40;11.27;;;15.70;99.90;;;;;;4181373;28;20180;-71
2022/06/13 01:27:03;;;;;;;15.73;14.33;;;15.70;99.90;;;;;;4177696;28;20606;-71
2022/06/13 01:29:37;;;;;;;12.03;11.07;;;15.60;99.90;;;;;;4181378;28;20541;-71
2022/06/13 01:32:05;;;;;;;9.70;7.27;;;15.60;99.90;;;;;;4181697;28;20183;-72
2022/06/13 01:35:01;;;;;;;8.03;7.23;;;15.50;99.90;;;;;;4181300;28;20184;-71
2022/06/13 01:37:32;;;;;;;7.87;7.10;;;15.30;99.90;;;;;;4143207;28;20231;-71
2022/06/13 01:39:48;;;;;;;10.57;9.47;;;15.30;99.90;;;;;;4180993;28;20710;-72
2022/06/13 01:41:57;;;;;;;9.63;8.63;;;15.10;99.90;;;;;;4181043;28;20181;-71
2022/06/13 01:44:12;;;;;;;8.57;7.30;;;15.10;99.90;;;;;;4181134;28;20255;-71
2022/06/13 01:46:37;;;;;;;9.63;8.17;;;15.10;99.90;;;;;;4180210;28;20834;-72
2022/06/13 01:48:57;;;;;;;10.90;9.97;;;15.00;99.90;;;;;;4179555;28;20210;-71
2022/06/13 01:51:31;;;;;;;9.47;8.17;;;15.00;99.90;;;;;;4181021;28;20212;-71
2022/06/13 01:53:45;;;;;;;13.27;9.50;;;15.10;99.90;;;;;;4180911;28;20176;-71
2022/06/13 01:56:07;;;;;;;9.53;8.50;;;15.00;99.90;;;;;;4180174;28;20211;-71
2022/06/13 01:58:40;;;;;;;13.03;9.63;;;15.00;99.90;;;;;;4181187;28;20176;-71
2022/06/13 02:00:51;;;;;;;11.00;8.43;;;15.00;99.90;;;;;;4182402;28;20739;-71
2022/06/13 02:03:16;;;;;;;12.53;10.17;;;14.90;99.90;;;;;;4181662;28;20643;-72
2022/06/13 02:05:16;;;;;;;11.40;9.73;;;14.80;99.90;;;;;;4181549;28;20216;-72
2022/06/13 02:07:22;;;;;;;10.73;9.47;;;14.90;99.90;;;;;;4180948;28;20600;-72
2022/06/13 02:09:28;;;;;;;11.03;10.03;;;14.80;99.90;;;;;;4181392;28;20249;-72
2022/06/13 02:11:31;;;;;;;11.17;7.93;;;14.80;99.90;;;;;;4172043;28;20645;-71
2022/06/13 02:13:35;;;;;;;11.27;10.17;;;14.70;99.90;;;;;;4164895;28;20181;-72
2022/06/13 02:15:40;;;;;;;10.77;9.67;;;14.70;99.90;;;;;;4163672;28;20219;-72
2022/06/13 02:17:46;;;;;;;10.63;9.53;;;14.70;99.90;;;;;;4180545;28;20176;-72
2022/06/13 02:19:53;;;;;;;12.90;10.83;;;14.60;99.90;;;;;;4179589;28;20192;-71
2022/06/13 02:21:59;;;;;;;12.33;8.60;;;14.50;99.90;;;;;;4181040;28;20202;-71
2022/06/13 02:24:02;;;;;;;9.90;8.70;;;14.60;99.90;;;;;;4181205;28;20214;-72
2022/06/13 02:26:17;;;;;;;6.50;5.70;;;14.50;99.90;;;;;;4180309;28;20192;-71
2022/06/13 02:28:21;;;;;;;10.00;8.97;;;14.50;99.90;;;;;;4180744;28;20180;-72
2022/06/13 02:30:30;;;;;;;11.07;9.33;;;14.40;99.90;;;;;;4180270;28;20228;-72
2022/06/13 02:32:41;;;;;;;9.27;8.37;;;14.30;99.90;;;;;;4178613;28;20191;-71
2022/06/13 02:34:53;;;;;;;11.37;9.50;;;14.30;99.90;;;;;;4180247;28;20246;-71
2022/06/13 02:37:03;;;;;;;10.63;9.57;;;14.20;99.90;;;;;;4179968;28;20310;-71
2022/06/13 02:39:17;;;;;;;12.30;11.00;;;14.30;99.90;;;;;;4180454;28;20168;-71
2022/06/13 02:41:22;;;;;;;11.83;10.37;;;14.20;99.90;;;;;;4179106;28;20578;-72
2022/06/13 02:43:26;;;;;;;12.03;11.00;;;14.10;99.90;;;;;;4180360;28;20250;-72
2022/06/13 02:45:32;;;;;;;11.77;10.40;;;14.00;99.90;;;;;;4179618;28;20197;-70
2022/06/13 02:47:44;;;;;;;12.33;8.60;;;13.80;99.90;;;;;;4180185;28;20302;-70
2022/06/13 02:49:45;;;;;;;13.67;9.33;;;13.70;99.90;;;;;;4179997;28;20327;-71
2022/06/13 02:52:09;;;;;;;9.60;8.53;;;13.50;99.90;;;;;;4178837;28;20655;-71
2022/06/13 02:54:31;;;;;;;13.27;9.83;;;13.60;99.90;;;;;;4168337;28;20745;-71
2022/06/13 02:57:31;;;;;;;10.50;9.50;;;13.50;99.90;;;;;;4179353;28;20174;-71
2022/06/13 02:59:20;;;;;;;9.13;8.23;;;13.40;99.90;;;;;;4175403;28;20838;-71
2022/06/13 03:01:26;;;;;;;13.73;9.80;;;13.30;99.90;;;;;;4179682;28;20164;-71
2022/06/13 03:04:07;;;;;;;11.53;10.40;;;13.30;99.90;;;;;;4179985;28;20173;-72
2022/06/13 03:06:21;;;;;;;10.33;8.77;;;13.30;99.90;;;;;;4179313;28;20169;-72
2022/06/13 03:08:43;;;;;;;10.53;9.63;;;13.30;99.90;;;;;;4179730;28;20168;-71
2022/06/13 03:10:58;;;;;;;10.20;9.07;;;13.20;99.90;;;;;;4179739;28;20214;-71
2022/06/13 03:13:09;;;;;;;11.27;10.17;;;13.20;99.90;;;;;;4179749;28;20275;-71
2022/06/13 03:15:22;;;;;;;8.37;7.53;;;13.20;99.90;;;;;;4179539;28;20258;-71
2022/06/13 03:17:33;;;;;;;8.17;7.47;;;13.20;99.90;;;;;;4179338;28;20176;-71
2022/06/13 03:19:43;;;;;;;10.20;9.20;;;13.20;99.90;;;;;;4179597;28;20227;-71
2022/06/13 03:22:00;;;;;;;11.57;9.47;;;13.10;99.90;;;;;;4179475;28;20573;-71
2022/06/13 03:24:19;;;;;;;9.93;9.03;;;13.10;99.90;;;;;;4179711;28;20180;-71
2022/06/13 03:26:25;;;;;;;10.77;8.83;;;12.90;99.90;;;;;;4179113;28;20921;-71
2022/06/13 03:28:56;;;;;;;7.77;6.33;;;12.90;99.90;;;;;;4179327;28;20268;-71
2022/06/13 03:31:03;;;;;;;8.70;7.90;;;12.90;99.90;;;;;;4179602;28;20314;-71
2022/06/13 03:35:30;;;;;;;11.13;7.87;;;13.00;99.90;;;;;;4179028;28;20203;-71
2022/06/13 03:37:46;;;;;;;9.73;8.90;;;13.00;99.90;;;;;;4179523;28;20176;-71
2022/06/13 03:39:53;;;;;;;29.33;9.07;;;12.90;99.90;;;;;;4179252;28;20180;-72
2022/06/13 03:42:10;;;;;;;8.60;6.50;;;12.90;99.90;;;;;;4179637;28;20188;-71
2022/06/13 03:44:23;;;;;;;14.43;7.83;;;12.80;99.90;;;;;;4179392;28;20184;-71
2022/06/13 03:46:32;;;;;;;8.83;8.03;;;12.80;99.90;;;;;;4178427;28;20172;-71
2022/06/13 03:48:43;;;;;;;13.60;8.53;;;12.80;99.90;;;;;;4178813;28;20260;-71
2022/06/13 03:51:00;;;;;;;13.37;9.23;;;12.90;99.90;;;;;;4179012;28;20192;-71
2022/06/13 03:53:18;;;;;;;10.17;6.93;;;12.90;99.90;;;;;;4181369;28;20267;-70
2022/06/13 03:55:38;;;;;;;10.03;7.90;;;12.90;99.90;;;;;;4181035;28;20242;-70
2022/06/13 03:57:52;;;;;;;9.13;8.33;;;12.80;99.90;;;;;;4181102;28;20226;-71
2022/06/13 04:00:00;;;;;;;10.63;9.50;;;12.80;99.90;;;;;;4180772;28;20720;-70
2022/06/13 04:02:04;;;;;;;10.87;9.17;;;12.90;99.90;;;;;;4181009;28;20190;-71
2022/06/13 04:04:05;;;;;;;8.80;7.90;;;12.90;99.90;;;;;;4177863;28;20252;-70
2022/06/13 04:06:33;;;;;;;10.60;9.63;;;12.90;99.90;;;;;;4163962;28;20188;-71
2022/06/13 04:08:36;;;;;;;8.57;7.33;;;12.90;99.90;;;;;;4164492;28;20656;-71
2022/06/13 04:11:11;;;;;;;8.23;7.43;;;13.00;99.90;;;;;;4164400;28;20713;-71
2022/06/13 04:13:18;;;;;;;10.47;7.40;;;13.00;99.90;;;;;;4167918;28;20243;-71
2022/06/13 04:15:40;;;;;;;8.07;7.37;;;13.00;99.90;;;;;;4167421;28;20204;-71
2022/06/13 04:17:58;;;;;;;8.53;6.90;;;13.00;99.90;;;;;;4167838;28;20191;-72
2022/06/13 04:20:25;;;;;;;13.23;8.03;;;13.00;99.90;;;;;;4167776;28;20173;-70
2022/06/13 04:22:37;;;;;;;9.60;7.47;;;13.10;99.90;;;;;;4167760;28;20668;-72
2022/06/13 04:24:57;;;;;;;8.27;7.67;;;13.20;99.90;;;;;;4167506;28;20196;-71
2022/06/13 04:27:05;;;;;;;8.13;7.33;;;13.20;99.90;;;;;;4167175;28;20212;-71
2022/06/13 04:29:17;;;;;;;8.73;5.70;;;13.20;99.90;;;;;;4166731;28;20230;-71
2022/06/13 04:31:19;;;;;;;7.30;6.40;;;13.30;99.90;;;;;;4175616;28;20210;-71
2022/06/13 04:33:26;;;;;;;7.03;6.37;;;13.40;99.90;;;;;;4183887;28;20703;-71
2022/06/13 04:35:29;;;;;;;8.17;6.17;;;13.40;99.90;;;;;;4182089;28;20204;-70
2022/06/13 04:37:30;;;;;;;8.60;5.37;;;13.40;99.90;;;;;;4184066;28;20175;-72
2022/06/13 04:39:33;;;;;;;8.77;6.27;;;13.30;99.90;;;;;;4184022;28;20208;-71
2022/06/13 04:41:37;;;;;;;6.73;6.13;;;13.40;99.90;;;;;;4183981;28;20176;-72
2022/06/13 04:43:42;;;;;;;7.17;6.60;;;13.40;99.90;;;;;;4184214;28;20180;-71
2022/06/13 04:46:08;;;;;;;7.93;7.13;;;13.50;99.90;;;;;;4183166;28;20203;-71
2022/06/13 04:48:10;;;;;;;8.90;6.10;;;13.50;99.90;;;;;;4183885;28;20176;-71
2022/06/13 04:50:16;;;;;;;9.17;8.27;;;13.50;99.90;;;;;;4183777;28;20204;-71
2022/06/13 04:52:23;;;;;;;8.00;6.93;;;13.60;99.90;;;;;;4183792;28;20168;-71
2022/06/13 04:54:37;;;;;;;12.07;9.43;;;13.70;99.90;;;;;;4183813;28;20580;-71
2022/06/13 04:56:38;;;;;;;10.97;8.70;;;13.80;99.90;;;;;;4183357;28;20186;-70
2022/06/13 04:58:40;;;;;;;9.50;8.13;;;13.80;99.90;;;;;;4182055;28;20180;-71
2022/06/13 05:00:42;;;;;;;10.57;9.77;;;13.90;99.90;;;;;;4182717;28;20279;-71
2022/06/13 05:02:46;;;;;;;9.80;8.30;;;13.90;99.90;;;;;;4183804;28;20172;-71
2022/06/13 05:04:47;;;;;;;10.20;8.83;;;13.90;99.90;;;;;;4183701;28;20203;-71
2022/06/13 05:06:50;;;;;;;9.83;8.43;;;13.90;99.90;;;;;;4183404;28;20208;-71
2022/06/13 05:08:56;;;;;;;10.57;9.43;;;13.90;99.90;;;;;;4183286;28;20176;-71
2022/06/13 05:11:17;;;;;;;11.47;10.43;;;13.90;99.90;;;;;;4183319;28;20204;-71
2022/06/13 05:13:19;;;;;;;9.23;8.33;;;13.90;99.90;;;;;;4183760;28;20648;-71
2022/06/13 05:15:30;;;;;;;9.07;8.17;;;13.90;99.90;;;;;;4182934;28;20790;-71
2022/06/13 05:17:52;;;;;;;10.70;9.77;;;14.00;99.90;;;;;;4183554;28;20175;-71
2022/06/13 05:20:08;;;;;;;10.00;9.10;;;13.90;99.90;;;;;;4183244;28;20177;-71
2022/06/13 05:22:33;;;;;;;10.33;9.53;;;14.00;99.90;;;;;;4183274;28;20188;-71
2022/06/13 05:24:58;;;;;;;11.33;9.07;;;14.00;99.90;;;;;;4183107;28;20196;-71
2022/06/13 05:27:01;;;;;;;9.80;8.87;;;13.90;99.90;;;;;;4180007;28;20226;-71
2022/06/13 05:29:01;;;;;;;10.60;9.70;;;14.00;99.90;;;;;;4180753;28;20183;-71
2022/06/13 05:31:18;;;;;;;10.57;9.67;;;14.10;99.90;;;;;;4180593;28;20216;-71
2022/06/13 05:33:26;;;;;;;10.77;9.87;;;14.10;99.90;;;;;;4180729;28;20172;-70
2022/06/13 05:35:31;;;;;;;16.43;15.10;;;14.10;99.90;;;;;;4179889;28;20188;-70
2022/06/13 05:37:32;;;;;;;9.07;8.30;;;14.20;99.90;;;;;;4180651;28;20666;-70
2022/06/13 05:39:35;;;;;;;42.90;40.30;;;14.30;99.90;;;;;;4180515;28;20184;-70
2022/06/13 05:41:36;;;;;;;128.53;121.20;;;14.30;99.90;;;;;;4180555;28;20180;-71
2022/06/13 05:43:36;;;;;;;12.97;12.07;;;14.30;99.90;;;;;;4179259;28;20230;-70
2022/06/13 05:45:41;;;;;;;50.93;47.57;;;14.40;99.90;;;;;;4179815;28;20204;-70
2022/06/13 05:47:45;;;;;;;14.27;13.23;;;14.50;99.90;;;;;;4180832;28;20184;-70
2022/06/13 05:49:46;;;;;;;17.63;16.33;;;14.70;99.90;;;;;;4180467;28;20216;-70
2022/06/13 05:51:47;;;;;;;51.73;48.43;;;14.90;99.90;;;;;;4180415;28;20222;-70
2022/06/13 05:53:48;;;;;;;13.23;11.67;;;14.90;99.90;;;;;;4180268;28;20168;-70
2022/06/13 05:55:51;;;;;;;30.63;28.50;;;15.10;99.90;;;;;;4179692;28;20192;-71
2022/06/13 05:57:51;;;;;;;29.93;28.03;;;15.20;99.90;;;;;;4180334;28;20263;-70
2022/06/13 05:59:52;;;;;;;33.00;30.90;;;15.20;99.90;;;;;;4180334;28;20192;-70
2022/06/13 06:01:52;;;;;;;11.67;8.70;;;15.20;99.90;;;;;;4180567;28;20250;-70
2022/06/13 06:03:53;;;;;;;10.97;9.80;;;15.30;99.90;;;;;;4180866;28;20615;-70
2022/06/13 06:05:55;;;;;;;18.73;17.30;;;15.30;99.90;;;;;;4178044;28;20200;-70
2022/06/13 06:07:56;;;;;;;13.47;12.47;;;15.20;99.90;;;;;;4164615;28;20188;-70
2022/06/13 06:09:57;;;;;;;47.00;43.63;;;15.30;99.90;;;;;;4163773;28;20680;-70
2022/06/13 06:11:58;;;;;;;22.13;20.53;;;15.30;99.90;;;;;;4163789;28;20189;-70
2022/06/13 06:13:59;;;;;;;10.10;9.20;;;15.20;99.90;;;;;;4163768;28;20234;-71
2022/06/13 06:16:00;;;;;;;44.20;41.30;;;15.00;99.90;;;;;;4163185;28;20197;-70
2022/06/13 06:18:01;;;;;;;8.23;7.43;;;15.20;99.90;;;;;;4163917;28;20204;-70
2022/06/13 06:20:01;;;;;;;81.57;77.07;;;15.10;99.90;;;;;;4163468;28;20652;-70
2022/06/13 06:22:02;;;;;;;18.83;16.97;;;15.00;99.10;;;;;;4163664;28;20264;-70
2022/06/13 06:24:03;;;;;;;10.33;9.50;;;14.90;98.90;;;;;;4163401;28;20190;-70
2022/06/13 06:26:05;;;;;;;19.20;18.00;;;14.80;99.10;;;;;;4162944;28;20177;-70
2022/06/13 06:28:06;;;;;;;17.63;16.33;;;14.70;98.80;;;;;;4163509;28;20196;-70
2022/06/13 06:30:08;;;;;;;17.87;16.37;;;14.70;98.70;;;;;;4163338;28;20217;-72
2022/06/13 06:32:08;;;;;;;12.00;11.20;;;14.80;99.70;;;;;;4163338;28;20181;-70
2022/06/13 06:34:09;;;;;;;23.80;22.03;;;14.90;99.60;;;;;;4162489;28;20239;-72
2022/06/13 06:36:12;;;;;;;30.47;28.23;;;15.00;99.30;;;;;;4162880;28;20184;-72
2022/06/13 06:38:12;;;;;;;43.73;41.13;;;15.00;99.60;;;;;;4163144;28;20232;-71
2022/06/13 06:40:15;;;;;;;8.17;7.50;;;15.10;98.60;;;;;;4162986;28;20193;-72
2022/06/13 06:42:16;;;;;;;19.93;18.63;;;15.00;98.50;;;;;;4163103;28;20177;-72
2022/06/13 06:44:17;;;;;;;7.43;6.73;;;14.90;99.10;;;;;;4162958;28;20191;-70
2022/06/13 06:46:18;;;;;;;8.17;6.73;;;14.80;98.90;;;;;;4162463;28;20181;-70
2022/06/13 06:48:21;;;;;;;45.57;42.70;;;14.70;98.50;;;;;;4163229;28;20227;-71
2022/06/13 06:50:25;;;;;;;9.83;9.13;;;14.80;96.70;;;;;;4163036;28;20217;-71
2022/06/13 06:52:26;;;;;;;13.80;12.73;;;14.80;97.60;;;;;;4162922;28;20188;-72
2022/06/13 07:01:27;;;;;;;7.90;6.67;;;15.00;95.70;;;;;;4162768;28;20183;-71
2022/06/13 07:03:27;;;;;;;6.87;4.23;;;15.10;95.10;;;;;;4162767;28;20184;-72
2022/06/13 07:05:28;;;;;;;6.83;4.53;;;15.30;95.30;;;;;;4162218;28;20209;-71
2022/06/13 07:07:29;;;;;;;23.03;21.60;;;15.30;94.10;;;;;;4162582;28;20671;-71
2022/06/13 07:09:29;;;;;;;8.37;5.50;;;15.20;92.60;;;;;;4162427;28;20176;-72
2022/06/13 07:13:52;;;;;;;10.63;8.50;;;15.20;93.30;;;;;;4178931;28;20195;-71
2022/06/13 07:15:52;;;;;;;11.73;11.03;;;15.20;94.40;;;;;;4178404;28;20671;-72
2022/06/13 07:17:53;;;;;;;9.07;6.00;;;15.20;92.90;;;;;;4178789;28;20793;-71
2022/06/13 07:19:53;;;;;;;7.30;3.50;;;15.30;92.70;;;;;;4178977;28;20185;-72
2022/06/13 07:21:54;;;;;;;15.77;14.53;;;15.50;91.40;;;;;;4179189;28;20594;-74
2022/06/13 07:23:55;;;;;;;6.93;5.10;;;15.40;91.20;;;;;;4178893;28;20189;-72
2022/06/13 07:25:55;;;;;;;12.47;11.23;;;15.40;91.30;;;;;;4177100;28;20273;-73
2022/06/13 07:27:57;;;;;;;19.50;17.93;;;15.60;91.30;;;;;;4178941;28;20667;-72
2022/06/13 07:29:58;;;;;;;7.93;5.07;;;15.50;91.70;;;;;;4178647;28;20200;-73
2022/06/13 07:32:04;;;;;;;7.80;5.37;;;15.60;90.50;;;;;;4179116;28;20212;-72
2022/06/13 07:34:07;;;;;;;40.30;37.73;;;15.60;89.30;;;;;;4178738;28;20198;-72
2022/06/13 07:36:09;;;;;;;6.53;3.13;;;15.50;87.90;;;;;;4178052;28;20176;-73
2022/06/13 07:38:17;;;;;;;13.87;12.67;;;15.60;87.60;;;;;;4178717;28;20557;-73
2022/06/13 07:40:17;;;;;;;17.83;16.47;;;15.70;87.20;;;;;;4178596;28;20175;-72
2022/06/13 07:42:18;;;;;;;8.03;7.33;;;15.80;87.70;;;;;;4178709;28;20180;-72
2022/06/13 07:44:36;;;;;;;6.00;2.90;;;15.90;85.60;;;;;;4178438;28;20212;-72
2022/06/13 07:46:36;;;;;;;8.67;5.53;;;16.00;88.80;;;;;;4177857;28;20179;-72
2022/06/13 07:48:37;;;;;;;23.70;21.67;;;16.10;82.90;;;;;;4177258;28;20850;-72
2022/06/13 07:50:37;;;;;;;19.93;18.33;;;16.00;81.80;;;;;;4178603;28;20290;-73
2022/06/13 07:52:38;;;;;;;21.80;19.87;;;16.20;82.30;;;;;;4178607;28;20177;-73
2022/06/13 07:54:38;;;;;;;18.57;16.97;;;16.30;76.60;;;;;;4178535;28;20567;-72
2022/06/13 07:56:40;;;;;;;139.17;130.20;;;16.10;73.40;;;;;;4178050;28;20259;-73
2022/06/13 07:58:42;;;;;;;8.73;2.63;;;16.20;70.70;;;;;;4178629;28;20290;-73
2022/06/13 08:00:45;;;;;;;3.40;2.40;;;16.30;72.00;;;;;;4178878;28;20532;-72
2022/06/13 08:02:45;;;;;;;5.40;2.97;;;16.50;72.10;;;;;;4178596;28;20183;-72
2022/06/13 08:04:46;;;;;;;6.87;2.53;;;16.60;72.50;;;;;;4178676;28;20226;-72
2022/06/13 08:06:47;;;;;;;12.90;11.73;;;16.30;70.20;;;;;;4177464;28;20576;-73
2022/06/13 08:08:48;;;;;;;110.60;103.97;;;16.50;68.60;;;;;;4164323;28;20270;-72
2022/06/13 08:10:49;;;;;;;28.67;26.37;;;16.30;67.10;;;;;;4161886;28;20216;-72
2022/06/13 08:12:50;;;;;;;7.23;6.67;;;16.20;68.10;;;;;;4162061;28;20181;-72
2022/06/13 08:14:50;;;;;;;11.87;9.03;;;16.30;70.60;;;;;;4161743;28;20626;-73
2022/06/13 08:16:52;;;;;;;6.43;4.53;;;16.10;68.70;;;;;;4161470;28;20230;-73
2022/06/13 08:18:53;;;;;;;10.67;9.70;;;16.20;70.20;;;;;;4161905;28;20261;-72
2022/06/13 08:20:54;;;;;;;4.63;1.97;;;16.30;70.00;;;;;;4161799;28;20295;-72
2022/06/13 08:22:58;;;;;;;7.17;3.30;;;16.30;69.90;;;;;;4162015;28;20184;-72
2022/06/13 08:24:58;;;;;;;37.43;34.77;;;16.40;67.30;;;;;;4161511;28;20287;-72
2022/06/13 08:26:59;;;;;;;46.53;43.27;;;16.60;67.20;;;;;;4161549;28;20184;-71
2022/06/13 08:28:59;;;;;;;19.90;18.30;;;16.50;66.70;;;;;;4161942;28;20177;-72
2022/06/13 08:31:05;;;;;;;5.43;2.17;;;16.30;67.90;;;;;;4161679;28;20215;-70
2022/06/13 08:33:06;;;;;;;9.60;2.33;;;16.50;70.30;;;;;;4161852;28;20202;-73
2022/06/13 08:35:07;;;;;;;51.80;48.30;;;16.70;67.80;;;;;;4160302;28;20652;-72
2022/06/13 08:37:08;;;;;;;10.33;9.37;;;16.70;69.40;;;;;;4161514;28;20661;-73
2022/06/13 08:39:09;;;;;;;26.13;24.20;;;16.60;68.50;;;;;;4161765;28;20169;-73
2022/06/13 08:41:13;;;;;;;7.90;3.50;;;16.40;69.40;;;;;;4161581;28;20670;-73
2022/06/13 08:43:38;;;;;;;8.60;7.73;;;16.50;70.40;;;;;;4160439;28;20189;-73
2022/06/13 08:45:47;;;;;;;105.70;99.03;;;16.60;72.20;;;;;;4163362;28;20197;-72
2022/06/13 08:47:54;;;;;;;24.80;22.97;;;16.70;67.60;;;;;;4163977;28;20183;-72
2022/06/13 08:50:03;;;;;;;14.60;13.53;;;16.60;66.50;;;;;;4164303;28;20292;-72
2022/06/13 08:52:27;;;;;;;6.70;6.07;;;16.50;66.00;;;;;;4164173;28;20180;-72
2022/06/13 08:54:32;;;;;;;24.20;22.43;;;16.70;66.70;;;;;;4164241;28;20211;-73
2022/06/13 08:56:36;;;;;;;18.27;16.93;;;16.90;67.10;;;;;;4162204;28;20679;-73
2022/06/13 08:58:56;;;;;;;5.77;4.80;;;17.10;65.50;;;;;;4167354;28;20241;-72
2022/06/13 09:01:07;;;;;;;59.33;55.63;;;17.00;63.80;;;;;;4167709;28;20176;-72
2022/06/13 09:03:13;;;;;;;47.83;44.73;;;17.10;62.20;;;;;;4167587;28;20260;-72
2022/06/13 09:05:48;;;;;;;7.13;3.20;;;17.00;63.20;;;;;;4167414;28;20208;-71
2022/06/13 09:08:16;;;;;;;8.00;7.20;;;17.20;65.70;;;;;;4167422;28;20546;-72
2022/06/13 09:10:55;;;;;;;5.47;3.07;;;17.40;66.80;;;;;;4167392;28;20704;-72
2022/06/13 09:13:12;;;;;;;44.73;41.80;;;17.50;63.40;;;;;;4167657;28;20173;-72
2022/06/13 09:15:18;;;;;;;4.40;2.30;;;17.60;63.30;;;;;;4167126;28;20195;-72
2022/06/13 09:17:28;;;;;;;7.43;2.20;;;17.60;63.00;;;;;;4167165;28;20604;-72
2022/06/13 09:20:00;;;;;;;4.13;2.73;;;17.30;64.60;;;;;;4167339;28;20184;-72
2022/06/13 09:22:27;;;;;;;7.13;2.50;;;17.70;62.80;;;;;;4174915;28;20192;-72
2022/06/13 09:24:34;;;;;;;6.67;5.93;;;17.50;61.80;;;;;;4183974;28;20200;-72
2022/06/13 09:26:48;;;;;;;5.83;4.87;;;17.50;61.90;;;;;;4183570;28;20176;-71
2022/06/13 09:29:03;;;;;;;30.63;28.70;;;17.80;60.40;;;;;;4183958;28;20183;-72
2022/06/13 09:31:09;;;;;;;18.60;17.10;;;18.10;58.30;;;;;;4183692;28;20307;-72
2022/06/13 09:33:28;;;;;;;3.87;2.37;;;18.00;55.70;;;;;;4183905;28;20253;-72
2022/06/13 09:35:34;;;;;;;3.23;1.93;;;18.10;56.30;;;;;;4183086;28;20860;-72
2022/06/13 09:38:03;;;;;;;5.20;4.73;;;18.10;56.60;;;;;;4183779;28;20177;-72
2022/06/13 09:40:04;;;;;;;61.97;57.97;;;18.00;52.30;;;;;;4177648;28;20223;-71
2022/06/13 09:42:59;;;;;;;4.87;1.73;;;17.80;54.20;;;;;;4183484;28;20195;-71
2022/06/13 09:45:18;;;;;;;7.83;7.20;;;18.10;54.00;;;;;;4164569;28;20209;-72
2022/06/13 09:47:24;;;;;;;17.87;16.63;;;18.20;51.30;;;;;;4177324;28;20188;-72
2022/06/13 09:49:38;;;;;;;7.70;6.97;;;17.90;49.50;;;;;;4183570;28;20330;-72
2022/06/13 09:52:00;;;;;;;18.73;17.30;;;18.10;50.90;;;;;;4183508;28;20871;-72
2022/06/13 09:54:18;;;;;;;29.10;27.33;;;18.20;50.90;;;;;;4183450;28;20230;-72
2022/06/13 09:56:38;;;;;;;6.10;5.70;;;18.20;47.90;;;;;;4181854;28;20271;-72
2022/06/13 09:59:11;;;;;;;46.93;44.17;;;18.20;44.30;;;;;;4183488;28;20184;-71
2022/06/13 10:01:28;;;;;;;39.00;36.53;;;18.40;42.70;;;;;;4183350;28;20215;-72
2022/06/13 10:03:56;;;;;;;32.20;30.30;;;18.30;42.60;;;;;;4172584;28;20216;-71
2022/06/13 10:06:31;;;;;;;8.97;8.30;;;18.40;38.60;;;;;;4166071;28;20777;-72
2022/06/13 10:08:50;;;;;;;18.50;17.30;;;18.80;42.80;;;;;;4164344;28;20189;-71
2022/06/13 10:10:57;;;;;;;8.97;8.20;;;18.70;43.50;;;;;;4166540;28;20259;-72
2022/06/13 10:13:19;;;;;;;5.50;5.10;;;18.60;42.00;;;;;;4166732;28;20181;-70
2022/06/13 10:15:47;;;;;;;2.40;2.20;;;18.90;41.40;;;;;;4165980;28;20185;-70
2022/06/13 10:18:25;;;;;;;66.63;62.97;;;19.50;42.40;;;;;;4161282;28;20267;-70
2022/06/13 10:20:41;;;;;;;51.80;48.67;;;19.60;38.90;;;;;;4166240;28;20224;-71
2022/06/13 10:23:16;;;;;;;132.43;125.00;;;19.50;41.00;;;;;;4163609;28;20694;-71
2022/06/13 10:25:37;;;;;;;14.30;13.50;;;19.40;38.80;;;;;;4163318;28;20302;-72
2022/06/13 10:27:43;;;;;;;3.30;3.03;;;19.80;40.60;;;;;;4163638;28;20611;-71
2022/06/13 10:30:15;;;;;;;12.07;11.37;;;20.20;41.50;;;;;;4163408;28;20287;-71
2022/06/13 10:32:49;;;;;;;2.93;2.73;;;20.50;41.50;;;;;;4163558;28;20209;-71
2022/06/13 10:35:21;;;;;;;23.47;21.97;;;20.40;38.70;;;;;;4163479;28;20209;-71
2022/06/13 10:37:35;;;;;;;32.30;30.40;;;20.40;39.60;;;;;;4163692;28;20188;-71
2022/06/13 10:39:36;;;;;;;15.73;14.77;;;20.40;39.00;;;;;;4163392;28;20181;-70
2022/06/13 10:41:40;;;;;;;21.07;19.70;;;20.90;40.40;;;;;;4163259;28;20260;-71
2022/06/13 10:43:42;;;;;;;55.27;52.23;;;21.10;38.10;;;;;;4163460;28;20177;-71
2022/06/13 10:45:44;;;;;;;51.03;48.20;;;21.90;37.60;;;;;;4162645;28;20204;-71
2022/06/13 10:47:57;;;;;;;91.53;86.70;;;22.10;36.40;;;;;;4163357;28;20652;-70
2022/06/13 10:50:06;;;;;;;8.27;7.77;;;21.90;35.20;;;;;;4163259;28;20235;-72
2022/06/13 10:52:13;;;;;;;71.70;67.87;;;22.10;35.60;;;;;;4163208;28;20183;-71
2022/06/13 10:54:18;;;;;;;51.43;48.70;;;22.20;35.40;;;;;;4163219;28;20268;-71
2022/06/13 10:56:23;;;;;;;39.27;36.93;;;22.30;35.80;;;;;;4162965;28;20548;-70
2022/06/13 10:58:35;;;;;;;7.43;6.83;;;23.10;35.20;;;;;;4163123;28;20227;-71
2022/06/13 11:00:36;;;;;;;16.90;16.00;;;22.90;33.60;;;;;;4163099;28;20240;-71
2022/06/13 11:02:37;;;;;;;31.37;29.57;;;23.60;32.80;;;;;;4162870;28;20197;-71
2022/06/13 11:04:37;;;;;;;3.53;3.23;;;23.40;32.40;;;;;;4163081;28;20196;-71
2022/06/13 11:06:53;;;;;;;62.33;58.80;;;23.60;33.40;;;;;;4162341;28;20246;-71
2022/06/13 11:08:59;;;;;;;72.63;68.80;;;24.30;32.10;;;;;;4162833;28;20188;-71
2022/06/13 11:11:05;;;;;;;65.73;62.17;;;24.00;29.90;;;;;;4162696;28;20212;-71
2022/06/13 11:13:22;;;;;;;3.67;3.37;;;24.30;28.90;;;;;;4162616;28;20204;-71
2022/06/13 11:23:02;;;;;;;4.03;2.73;;;24.80;30.00;;;;;;4179319;28;20238;-70
2022/06/13 11:25:10;;;;;;;10.70;10.03;;;25.00;29.90;;;;;;4178841;28;20220;-70